createdAt,value
2018-11-02T00:00:13.857Z,8.80
2018-11-02T00:02:38.933Z,7.87
2018-11-02T00:05:04.020Z,7.50
2018-11-02T00:07:29.105Z,7.60
2018-11-02T00:09:54.228Z,7.53
2018-11-02T00:12:19.327Z,7.93
2018-11-02T00:14:44.373Z,7.47
2018-11-02T00:17:09.461Z,7.07
2018-11-02T00:19:35.341Z,7.70
2018-11-02T00:22:01.895Z,7.33
2018-11-02T00:24:27.284Z,7.40
2018-11-02T00:26:52.331Z,7.60
2018-11-02T00:29:17.427Z,7.00
2018-11-02T00:31:42.586Z,7.47
2018-11-02T00:34:07.620Z,7.80
2018-11-02T00:36:32.733Z,8.33
2018-11-02T00:38:57.823Z,8.93
2018-11-02T00:44:16.641Z,8.43
2018-11-02T00:46:41.728Z,7.80
2018-11-02T00:49:07.263Z,8.07
2018-11-02T00:54:09.009Z,8.97
2018-11-02T00:56:34.176Z,9.23
2018-11-02T00:59:18.491Z,8.13
2018-11-02T01:01:43.572Z,8.90
2018-11-02T01:04:08.698Z,8.93
2018-11-02T01:06:33.805Z,9.50
2018-11-02T01:11:36.013Z,8.70
2018-11-02T01:14:01.145Z,9.43
2018-11-02T01:16:26.317Z,8.93
2018-11-02T01:18:51.402Z,9.27
2018-11-02T01:21:16.504Z,8.77
2018-11-02T01:23:41.575Z,9.43
2018-11-02T01:26:07.120Z,9.60
2018-11-02T01:28:32.306Z,10.47
2018-11-02T01:30:57.389Z,10.33
2018-11-02T01:33:37.245Z,9.83
2018-11-02T01:36:02.335Z,9.90
2018-11-02T01:38:27.435Z,10.07
2018-11-02T01:40:52.548Z,10.17
2018-11-02T01:43:17.653Z,9.83
2018-11-02T01:45:42.818Z,10.10
2018-11-02T01:50:47.355Z,10.03
2018-11-02T01:53:12.469Z,9.57
2018-11-02T01:55:37.912Z,10.77
2018-11-02T01:58:03.023Z,10.57
2018-11-02T02:00:28.139Z,10.63
2018-11-02T02:02:53.217Z,9.90
2018-11-02T02:05:18.301Z,10.20
2018-11-02T02:07:43.419Z,9.87
2018-11-02T02:10:08.494Z,10.40
2018-11-02T02:12:33.573Z,10.43
2018-11-02T02:15:17.674Z,10.10
2018-11-02T02:18:01.752Z,10.10
2018-11-02T02:20:26.854Z,9.93
2018-11-02T02:22:51.973Z,10.30
2018-11-02T02:25:17.034Z,10.83
2018-11-02T02:27:42.133Z,10.27
2018-11-02T02:33:04.936Z,10.27
2018-11-02T02:35:30.023Z,10.37
2018-11-02T02:37:55.161Z,9.97
2018-11-02T02:40:39.247Z,9.90
2018-11-02T02:43:04.795Z,9.87
2018-11-02T02:45:30.078Z,9.73
2018-11-02T02:47:55.142Z,9.33
2018-11-02T02:50:20.244Z,9.33
2018-11-02T02:52:45.477Z,10.10
2018-11-02T02:55:10.594Z,9.70
2018-11-02T02:57:36.306Z,10.07
2018-11-02T03:00:01.541Z,9.80
2018-11-02T03:02:26.628Z,9.63
2018-11-02T03:04:51.744Z,9.60
2018-11-02T03:07:16.863Z,10.30
2018-11-02T03:10:00.926Z,9.77
2018-11-02T03:12:44.999Z,9.80
2018-11-02T03:15:10.232Z,9.47
2018-11-02T03:17:35.528Z,9.70
2018-11-02T03:20:00.656Z,10.07
2018-11-02T03:25:02.478Z,10.30
2018-11-02T03:27:27.600Z,10.40
2018-11-02T03:29:52.749Z,10.10
2018-11-02T03:32:17.874Z,10.10
2018-11-02T03:34:42.965Z,9.90
2018-11-02T03:37:08.115Z,9.63
2018-11-02T03:39:33.243Z,10.20
2018-11-02T03:41:58.368Z,9.77
2018-11-02T03:44:23.444Z,9.87
2018-11-02T03:46:48.530Z,9.77
2018-11-02T03:49:13.666Z,9.67
2018-11-02T03:51:38.723Z,9.83
2018-11-02T03:54:03.944Z,9.87
2018-11-02T03:56:31.318Z,9.40
2018-11-02T03:58:54.151Z,9.03
2018-11-02T04:01:19.276Z,9.80
2018-11-02T04:03:44.339Z,9.87
2018-11-02T04:06:09.457Z,9.10
2018-11-02T04:08:34.569Z,9.40
2018-11-02T04:11:18.629Z,9.90
2018-11-02T04:13:43.699Z,10.47
2018-11-02T04:16:08.823Z,10.27
2018-11-02T04:21:10.048Z,9.83
2018-11-02T04:23:35.176Z,9.50
2018-11-02T04:26:00.257Z,9.60
2018-11-02T04:28:25.373Z,9.43
2018-11-02T04:30:50.521Z,9.40
2018-11-02T04:33:15.539Z,9.80
2018-11-02T04:35:40.723Z,9.67
2018-11-02T04:38:05.868Z,9.57
2018-11-02T04:40:30.963Z,9.63
2018-11-02T04:42:56.068Z,9.43
2018-11-02T04:45:39.886Z,9.47
2018-11-02T04:48:05.022Z,9.13
2018-11-02T04:50:30.126Z,9.87
2018-11-02T04:52:55.201Z,8.23
2018-11-02T04:55:20.312Z,8.90
2018-11-02T04:58:04.332Z,9.13
2018-11-02T05:00:29.504Z,8.90
2018-11-02T05:02:54.653Z,9.10
2018-11-02T05:05:19.704Z,9.43
2018-11-02T05:07:44.805Z,9.37
2018-11-02T05:10:10.463Z,8.30
2018-11-02T05:12:35.542Z,8.57
2018-11-02T05:15:00.636Z,9.03
2018-11-02T05:17:25.755Z,8.83
2018-11-02T05:19:50.809Z,8.53
2018-11-02T05:24:54.915Z,8.33
2018-11-02T05:27:19.992Z,8.30
2018-11-02T05:29:45.476Z,8.50
2018-11-02T05:32:10.580Z,8.03
2018-11-02T05:34:35.720Z,8.27
2018-11-02T05:37:00.817Z,8.43
2018-11-02T05:39:25.951Z,8.10
2018-11-02T05:42:09.977Z,8.00
2018-11-02T05:44:35.034Z,7.90
2018-11-02T05:47:00.304Z,8.10
2018-11-02T05:52:20.906Z,7.93
2018-11-02T05:54:45.998Z,7.70
2018-11-02T05:57:11.301Z,7.63
2018-11-02T05:59:36.497Z,8.10
2018-11-02T06:02:01.651Z,7.70
2018-11-02T06:04:45.680Z,7.13
2018-11-02T06:07:10.737Z,8.03
2018-11-02T06:09:35.800Z,7.20
2018-11-02T06:12:00.887Z,7.17
2018-11-02T06:14:26.023Z,6.80
2018-11-02T06:16:51.391Z,7.20
2018-11-02T06:21:55.792Z,7.30
2018-11-02T06:24:20.976Z,7.53
2018-11-02T06:27:04.959Z,6.93
2018-11-02T06:29:30.057Z,7.40
2018-11-02T06:31:55.180Z,6.83
2018-11-02T06:34:20.271Z,6.77
2018-11-02T06:36:45.343Z,6.63
2018-11-02T06:39:29.447Z,6.50
2018-11-02T06:41:54.547Z,6.80
2018-11-02T06:44:19.675Z,6.80
2018-11-02T06:46:44.805Z,6.73
2018-11-02T06:49:09.933Z,6.67
2018-11-02T06:51:35.038Z,6.73
2018-11-02T06:56:39.867Z,6.60
2018-11-02T06:59:04.966Z,6.30
2018-11-02T07:04:14.346Z,6.83
2018-11-02T07:06:39.415Z,7.00
2018-11-02T07:09:05.012Z,7.10
2018-11-02T07:11:30.100Z,6.47
2018-11-02T07:13:55.347Z,6.87
2018-11-02T07:16:20.446Z,6.10
2018-11-02T07:18:45.529Z,6.60
2018-11-02T07:21:10.714Z,7.20
2018-11-02T07:23:35.800Z,6.27
2018-11-02T07:26:19.946Z,6.13
2018-11-02T07:28:56.478Z,6.40
2018-11-02T07:31:22.557Z,6.37
2018-11-02T07:33:47.664Z,6.40
2018-11-02T07:36:12.728Z,6.03
2018-11-02T07:38:56.817Z,6.13
2018-11-02T07:41:21.927Z,6.70
2018-11-02T07:43:47.055Z,6.60
2018-11-02T07:46:12.134Z,7.20
2018-11-02T07:48:37.214Z,6.63
2018-11-02T07:51:02.344Z,6.43
2018-11-02T07:53:27.411Z,6.67
2018-11-02T07:56:11.498Z,6.60
2018-11-02T07:58:36.594Z,6.00
2018-11-02T08:01:01.709Z,6.37
2018-11-02T08:03:26.795Z,6.00
2018-11-02T08:05:51.902Z,6.43
2018-11-02T08:08:17.033Z,6.30
2018-11-02T08:10:42.099Z,6.20
2018-11-02T08:13:07.345Z,5.97
2018-11-02T08:15:51.374Z,5.57
2018-11-02T08:18:35.482Z,6.13
2018-11-02T08:23:16.536Z,5.80
2018-11-02T08:25:41.704Z,5.60
2018-11-02T08:28:25.758Z,5.47
2018-11-02T08:31:09.914Z,5.30
2018-11-02T08:33:34.976Z,5.13
2018-11-02T08:36:00.056Z,5.30
2018-11-02T08:38:25.208Z,5.20
2018-11-02T08:40:50.287Z,5.00
2018-11-02T08:43:15.460Z,5.40
2018-11-02T08:45:40.553Z,4.90
2018-11-02T08:48:05.907Z,4.90
2018-11-02T08:50:31.008Z,5.10
2018-11-02T08:53:07.807Z,5.50
2018-11-02T08:55:32.941Z,4.93
2018-11-02T08:57:58.252Z,5.20
2018-11-02T09:00:23.079Z,4.87
2018-11-02T09:02:48.211Z,5.03
2018-11-02T09:05:13.398Z,6.13
2018-11-02T09:07:39.014Z,5.00
2018-11-02T09:10:04.143Z,5.10
2018-11-02T09:12:29.259Z,5.10
2018-11-02T09:14:54.387Z,4.97
2018-11-02T09:17:38.398Z,5.20
2018-11-02T09:20:03.558Z,5.90
2018-11-02T09:22:28.671Z,4.33
2018-11-02T09:24:53.859Z,5.60
2018-11-02T09:27:18.986Z,5.20
2018-11-02T09:30:02.971Z,4.40
2018-11-02T09:32:28.084Z,5.00
2018-11-02T09:34:53.219Z,4.97
2018-11-02T09:37:18.334Z,5.40
2018-11-02T09:39:43.434Z,5.20
2018-11-02T09:42:08.518Z,5.27
2018-11-02T09:44:33.627Z,5.07
2018-11-02T09:46:58.695Z,4.90
2018-11-02T09:49:28.282Z,5.07
2018-11-02T09:51:53.380Z,4.73
2018-11-02T09:54:18.411Z,4.83
2018-11-02T09:56:43.502Z,4.90
2018-11-02T09:59:08.567Z,5.00
2018-11-02T10:01:33.703Z,5.10
2018-11-02T10:03:58.783Z,4.80
2018-11-02T10:06:23.876Z,5.30
2018-11-02T10:09:08.048Z,4.00
2018-11-02T10:11:33.004Z,4.00
2018-11-02T10:13:58.097Z,4.30
2018-11-02T10:16:23.198Z,3.80
2018-11-02T10:18:48.274Z,3.87
2018-11-02T10:21:13.371Z,3.43
2018-11-02T10:23:38.502Z,3.80
2018-11-02T10:26:03.565Z,4.70
2018-11-02T10:28:28.668Z,4.13
2018-11-02T10:30:53.734Z,3.57
2018-11-02T10:33:18.829Z,4.10
2018-11-02T10:35:44.371Z,3.70
2018-11-02T10:38:09.480Z,3.60
2018-11-02T10:40:35.304Z,3.60
2018-11-02T10:43:03.939Z,3.30
2018-11-02T10:45:48.251Z,3.53
2018-11-02T10:48:13.328Z,3.33
2018-11-02T10:50:38.440Z,4.37
2018-11-02T10:53:03.643Z,4.20
2018-11-02T10:55:28.902Z,4.93
2018-11-02T10:58:12.953Z,5.40
2018-11-02T11:00:56.951Z,5.57
2018-11-02T11:03:22.270Z,5.27
2018-11-02T11:05:47.433Z,5.23
2018-11-02T11:08:12.477Z,5.40
2018-11-02T11:10:37.571Z,4.50
2018-11-02T11:13:03.110Z,5.13
2018-11-02T11:15:27.802Z,4.63
2018-11-02T11:17:52.924Z,4.30
2018-11-02T11:20:18.009Z,4.70
2018-11-02T11:22:43.233Z,4.37
2018-11-02T11:25:10.787Z,4.93
2018-11-02T11:27:35.915Z,5.30
2018-11-02T11:30:01.041Z,5.60
2018-11-02T11:32:26.197Z,6.20
2018-11-02T11:35:02.527Z,5.67
2018-11-02T11:37:27.614Z,5.37
2018-11-02T11:39:52.990Z,5.30
2018-11-02T11:42:36.780Z,4.90
2018-11-02T11:45:01.937Z,5.37
2018-11-02T11:47:27.053Z,4.77
2018-11-02T11:49:52.149Z,5.27
2018-11-02T11:52:17.247Z,5.60
2018-11-02T11:54:42.462Z,5.47
2018-11-02T11:57:08.038Z,3.90
2018-11-02T11:59:33.150Z,6.57
2018-11-02T12:01:58.230Z,3.67
2018-11-02T12:04:23.360Z,2.90
2018-11-02T12:06:48.425Z,1.87
2018-11-02T12:09:13.516Z,2.60
2018-11-02T12:11:38.618Z,2.60
2018-11-02T12:14:03.729Z,2.57
2018-11-02T12:16:28.923Z,3.43
2018-11-02T12:19:12.960Z,3.13
2018-11-02T12:21:38.151Z,3.70
2018-11-02T12:24:03.195Z,2.40
2018-11-02T12:26:28.275Z,4.00
2018-11-02T12:28:53.463Z,2.50
2018-11-02T12:31:18.479Z,2.43
2018-11-02T12:33:43.704Z,3.47
2018-11-02T12:36:08.829Z,2.47
2018-11-02T12:38:33.976Z,2.43
2018-11-02T12:40:59.125Z,2.93
2018-11-02T12:43:24.325Z,2.70
2018-11-02T12:45:49.429Z,3.17
2018-11-02T12:48:14.588Z,2.53
2018-11-02T12:50:39.713Z,3.10
2018-11-02T12:53:04.820Z,2.20
2018-11-02T12:55:29.941Z,2.20
2018-11-02T12:57:55.043Z,2.17
2018-11-02T13:00:39.099Z,1.80
2018-11-02T13:03:04.242Z,1.60
2018-11-02T13:05:29.341Z,1.60
2018-11-02T13:07:54.456Z,1.50
2018-11-02T13:10:20.729Z,1.40
2018-11-02T13:12:45.847Z,1.33
2018-11-02T13:15:13.112Z,1.33
2018-11-02T13:17:38.476Z,1.20
2018-11-02T13:20:06.222Z,1.27
2018-11-02T13:22:31.286Z,1.23
2018-11-02T13:24:56.406Z,1.33
2018-11-02T13:27:21.532Z,1.10
2018-11-02T13:29:46.688Z,1.10
2018-11-02T13:32:11.771Z,1.10
2018-11-02T13:34:55.856Z,0.77
2018-11-02T13:37:21.333Z,1.07
2018-11-02T13:40:05.462Z,1.30
2018-11-02T13:42:30.546Z,1.40
2018-11-02T13:44:55.694Z,1.37
2018-11-02T13:47:20.809Z,1.97
2018-11-02T13:50:04.631Z,1.50
2018-11-02T13:52:29.707Z,1.70
2018-11-02T13:54:54.802Z,1.93
2018-11-02T13:57:22.326Z,1.87
2018-11-02T13:59:47.467Z,2.10
2018-11-02T14:02:12.569Z,2.20
2018-11-02T14:04:37.771Z,2.07
2018-11-02T14:07:02.883Z,1.93
2018-11-02T14:09:47.000Z,2.10
2018-11-02T14:12:12.088Z,2.40
2018-11-02T14:14:37.199Z,3.10
2018-11-02T14:17:02.352Z,2.80
2018-11-02T14:19:27.417Z,3.70
2018-11-02T14:21:52.553Z,3.20
2018-11-02T14:24:17.637Z,4.10
2018-11-02T14:26:42.727Z,6.77
2018-11-02T14:29:07.839Z,5.87
2018-11-02T14:31:33.000Z,5.77
2018-11-02T14:33:58.110Z,5.53
2018-11-02T14:36:23.194Z,6.03
2018-11-02T14:38:48.366Z,5.90
2018-11-02T14:41:13.552Z,6.23
2018-11-02T14:43:38.622Z,6.67
2018-11-02T14:46:03.768Z,5.93
2018-11-02T14:48:28.856Z,7.53
2018-11-02T14:50:53.971Z,8.27
2018-11-02T14:53:19.120Z,10.70
2018-11-02T14:56:02.893Z,8.97
2018-11-02T14:58:28.038Z,8.67
2018-11-02T15:00:53.218Z,7.47
2018-11-02T15:03:30.146Z,7.00
2018-11-02T15:05:55.301Z,8.03
2018-11-02T15:11:16.018Z,6.63
2018-11-02T15:13:41.031Z,7.27
2018-11-02T15:16:06.245Z,7.00
2018-11-02T15:18:43.500Z,7.07
2018-11-02T15:21:30.209Z,7.27
2018-11-02T15:23:55.436Z,7.60
2018-11-02T15:26:20.592Z,7.70
2018-11-02T15:28:45.681Z,7.80
2018-11-02T15:31:10.743Z,8.00
2018-11-02T15:33:35.913Z,8.23
2018-11-02T15:36:01.022Z,8.40
2018-11-02T15:38:26.211Z,9.50
2018-11-02T15:40:51.343Z,9.87
2018-11-02T15:43:16.444Z,9.10
2018-11-02T15:46:00.516Z,8.23
2018-11-02T15:48:25.626Z,8.03
2018-11-02T15:50:50.782Z,7.80
2018-11-02T15:53:15.916Z,7.80
2018-11-02T15:55:40.961Z,8.10
2018-11-02T15:58:06.212Z,9.17
2018-11-02T16:00:31.359Z,10.10
2018-11-02T16:02:56.512Z,9.77
2018-11-02T16:05:21.623Z,9.30
2018-11-02T16:07:46.733Z,8.73
2018-11-02T16:10:12.601Z,8.50
2018-11-02T16:12:37.748Z,8.83
2018-11-02T16:15:02.915Z,9.97
2018-11-02T16:17:28.056Z,10.67
2018-11-02T16:19:53.174Z,10.97
2018-11-02T16:22:18.271Z,12.97
2018-11-02T16:24:43.400Z,10.90
2018-11-02T16:27:08.557Z,13.80
2018-11-02T16:29:33.658Z,15.10
2018-11-02T16:31:58.776Z,13.50
2018-11-02T16:34:24.056Z,14.07
2018-11-02T16:36:49.041Z,10.13
2018-11-02T16:39:14.168Z,11.60
2018-11-02T16:41:39.726Z,11.13
2018-11-02T16:44:04.991Z,10.03
2018-11-02T16:46:30.036Z,10.93
2018-11-02T16:48:55.205Z,16.03
2018-11-02T16:51:20.297Z,17.63
2018-11-02T16:53:45.424Z,22.07
2018-11-02T16:56:10.573Z,20.97
2018-11-02T16:58:35.859Z,10.37
2018-11-02T17:01:00.969Z,9.03
2018-11-02T17:03:26.183Z,11.40
2018-11-02T17:05:51.377Z,10.57
2018-11-02T17:08:16.383Z,9.03
2018-11-02T17:10:41.516Z,7.80
2018-11-02T17:13:07.113Z,9.13
2018-11-02T17:15:32.300Z,10.73
2018-11-02T17:17:57.416Z,11.63
2018-11-02T17:20:22.515Z,15.63
2018-11-02T17:22:47.959Z,12.80
2018-11-02T17:25:15.228Z,15.03
2018-11-02T17:27:40.589Z,13.70
2018-11-02T17:30:06.405Z,13.63
2018-11-02T17:32:31.571Z,12.90
2018-11-02T17:35:15.687Z,13.37
2018-11-02T17:40:17.271Z,9.40
2018-11-02T17:42:42.834Z,9.30
2018-11-02T17:45:08.740Z,12.20
2018-11-02T17:47:33.924Z,15.80
2018-11-02T17:49:59.017Z,13.50
2018-11-02T17:52:24.817Z,13.73
2018-11-02T17:54:49.949Z,12.67
2018-11-02T17:59:54.374Z,12.00
2018-11-02T18:02:19.535Z,13.23
2018-11-02T18:04:44.662Z,17.07
2018-11-02T18:07:09.796Z,12.03
2018-11-02T18:09:34.929Z,10.03
2018-11-02T18:12:00.086Z,11.27
2018-11-02T18:14:25.230Z,11.23
2018-11-02T18:16:50.309Z,10.23
2018-11-02T18:19:15.445Z,11.17
2018-11-02T18:21:40.746Z,11.57
2018-11-02T18:24:24.960Z,10.63
2018-11-02T18:26:50.105Z,10.93
2018-11-02T18:29:15.284Z,9.50
2018-11-02T18:31:40.367Z,7.63
2018-11-02T18:36:42.572Z,7.37
2018-11-02T18:39:13.040Z,6.77
2018-11-02T18:41:38.202Z,6.40
2018-11-02T18:44:03.380Z,7.00
2018-11-02T18:46:28.531Z,6.57
2018-11-02T18:51:30.392Z,8.57
2018-11-02T18:53:55.492Z,7.03
2018-11-02T18:56:20.611Z,6.03
2018-11-02T18:58:45.721Z,6.90
2018-11-02T19:01:10.839Z,6.53
2018-11-02T19:03:36.028Z,7.30
2018-11-02T19:06:01.135Z,7.90
2018-11-02T19:08:26.332Z,6.50
2018-11-02T19:10:51.457Z,7.00
2018-11-02T19:13:16.631Z,7.03
2018-11-02T19:15:41.875Z,6.27
2018-11-02T19:18:06.941Z,7.37
2018-11-02T19:20:32.249Z,6.20
2018-11-02T19:22:57.214Z,6.70
2018-11-02T19:25:22.339Z,7.13
2018-11-02T19:27:47.684Z,6.57
2018-11-02T19:30:13.738Z,6.27
2018-11-02T19:32:57.916Z,6.23
2018-11-02T19:35:23.213Z,6.40
2018-11-02T19:37:48.257Z,7.07
2018-11-02T19:40:32.329Z,11.80
2018-11-02T19:42:57.489Z,11.30
2018-11-02T19:45:23.003Z,15.57
2018-11-02T19:48:06.835Z,13.83
2018-11-02T19:50:32.084Z,11.33
2018-11-02T19:52:57.137Z,9.43
2018-11-02T19:55:22.389Z,6.20
2018-11-02T19:58:06.379Z,6.40
2018-11-02T20:00:31.529Z,5.77
2018-11-02T20:03:15.567Z,6.30
2018-11-02T20:05:40.714Z,5.40
2018-11-02T20:08:06.133Z,5.70
2018-11-02T20:13:09.861Z,6.23
2018-11-02T20:15:34.997Z,6.17
2018-11-02T20:18:00.207Z,7.03
2018-11-02T20:20:25.397Z,8.70
2018-11-02T20:22:50.585Z,8.10
2018-11-02T20:25:17.196Z,8.17
2018-11-02T20:27:42.363Z,7.87
2018-11-02T20:32:56.448Z,7.33
2018-11-02T20:35:21.639Z,7.77
2018-11-02T20:37:46.757Z,8.40
2018-11-02T20:40:31.662Z,7.90
2018-11-02T20:42:56.801Z,7.40
2018-11-02T20:45:21.943Z,7.27
2018-11-02T20:47:49.576Z,6.67
2018-11-02T20:50:14.698Z,6.37
2018-11-02T20:52:39.954Z,6.07
2018-11-02T20:55:05.094Z,6.33
2018-11-02T20:57:31.164Z,6.20
2018-11-02T20:59:56.211Z,6.83
2018-11-02T21:02:21.380Z,6.57
2018-11-02T21:04:46.601Z,6.73
2018-11-02T21:07:11.808Z,7.67
2018-11-02T21:09:37.195Z,10.73
2018-11-02T21:12:02.078Z,13.30
2018-11-02T21:14:27.455Z,12.80
2018-11-02T21:16:52.421Z,11.33
2018-11-02T21:19:17.978Z,11.33
2018-11-02T21:21:43.186Z,12.53
2018-11-02T21:24:08.574Z,13.57
2018-11-02T21:26:33.698Z,12.60
2018-11-02T21:28:59.021Z,14.60
2018-11-02T21:31:24.038Z,13.47
2018-11-02T21:33:49.274Z,14.00
2018-11-02T21:36:14.395Z,13.50
2018-11-02T21:41:16.926Z,12.47
2018-11-02T21:43:42.117Z,12.53
2018-11-02T21:46:07.396Z,11.93
2018-11-02T21:48:32.549Z,11.83
2018-11-02T21:50:57.646Z,11.77
2018-11-02T21:53:22.927Z,11.83
2018-11-02T21:55:48.070Z,11.53
2018-11-02T21:58:13.235Z,11.37
2018-11-02T22:00:38.336Z,13.03
2018-11-02T22:03:03.428Z,12.83
2018-11-02T22:05:28.993Z,13.13
2018-11-02T22:07:54.051Z,15.07
2018-11-02T22:10:19.344Z,16.00
2018-11-02T22:12:44.528Z,14.80
2018-11-02T22:17:47.273Z,12.53
2018-11-02T22:22:49.648Z,12.53
2018-11-02T22:27:51.509Z,12.07
2018-11-02T22:30:17.643Z,11.70
2018-11-02T22:32:42.772Z,11.77
2018-11-02T22:35:07.939Z,13.73
2018-11-02T22:37:33.102Z,12.33
2018-11-02T22:39:58.302Z,12.67
2018-11-02T22:42:23.465Z,12.97
2018-11-02T22:44:48.598Z,13.17
2018-11-02T22:47:13.823Z,12.97
2018-11-02T22:49:38.945Z,12.60
2018-11-02T22:52:04.097Z,13.93
2018-11-02T22:54:29.250Z,14.57
2018-11-02T22:56:54.401Z,13.83
2018-11-02T22:59:19.519Z,14.87
2018-11-02T23:02:03.639Z,14.37
2018-11-02T23:04:28.845Z,15.03
2018-11-02T23:06:53.991Z,17.80
2018-11-02T23:09:19.163Z,19.20
2018-11-02T23:11:44.296Z,19.00
2018-11-02T23:14:09.489Z,19.27
2018-11-02T23:16:34.596Z,18.73
2018-11-02T23:18:59.736Z,18.57
2018-11-02T23:21:24.938Z,17.60
2018-11-02T23:23:50.039Z,18.83
2018-11-02T23:26:15.333Z,18.17
2018-11-02T23:28:40.607Z,17.83
2018-11-02T23:31:05.727Z,17.23
2018-11-02T23:33:49.933Z,18.37
2018-11-02T23:36:15.084Z,17.60
2018-11-02T23:38:40.211Z,18.43
2018-11-02T23:41:05.375Z,17.87
2018-11-02T23:43:30.546Z,17.07
2018-11-02T23:45:55.671Z,17.80
2018-11-02T23:48:21.054Z,17.43
2018-11-02T23:50:47.802Z,16.97
2018-11-02T23:53:12.915Z,19.50
2018-11-02T23:55:38.017Z,18.90
2018-11-02T23:58:03.266Z,18.30
